TimeEST,TemperatureF,Dew PointF,Humidity,Sea Level PressureIn,VisibilityMPH,Wind Direction,Wind SpeedMPH,Gust SpeedMPH,PrecipitationIn,Events,Conditions,WindDirDegrees,DateUTC
12:54 AM,25.0,18.0,75,29.74,10.0,Calm,Calm,-,N/A,,Partly Cloudy,0,2013-02-14 05:54:00
1:54 AM,24.1,18.0,77,29.78,9.0,Calm,Calm,-,N/A,,Clear,0,2013-02-14 06:54:00
2:54 AM,21.0,16.0,81,29.78,10.0,Calm,Calm,-,N/A,,Clear,0,2013-02-14 07:54:00
3:54 AM,21.0,17.1,85,29.80,10.0,Calm,Calm,-,N/A,,Overcast,0,2013-02-14 08:54:00
4:54 AM,21.9,17.1,82,29.81,10.0,Calm,Calm,-,N/A,,Overcast,0,2013-02-14 09:54:00
5:54 AM,21.9,17.1,82,29.83,4.0,Calm,Calm,-,N/A,,Haze,0,2013-02-14 10:54:00
6:54 AM,21.9,17.1,82,29.85,9.0,Calm,Calm,-,N/A,,Mostly Cloudy,0,2013-02-14 11:54:00
7:54 AM,21.9,17.1,82,29.88,5.0,Calm,Calm,-,N/A,,Haze,0,2013-02-14 12:54:00
8:54 AM,25.0,18.0,75,29.91,9.0,Calm,Calm,-,N/A,,Overcast,0,2013-02-14 13:54:00
9:54 AM,32.0,19.0,59,29.91,10.0,Variable,4.6,-,N/A,,Scattered Clouds,0,2013-02-14 14:54:00
10:54 AM,34.0,16.0,48,29.92,10.0,West,13.8,-,N/A,,Scattered Clouds,260,2013-02-14 15:54:00
11:54 AM,36.0,17.1,46,29.92,10.0,Variable,6.9,-,N/A,,Overcast,0,2013-02-14 16:54:00
12:54 PM,37.0,19.0,48,29.90,10.0,North,8.1,-,N/A,,Overcast,10,2013-02-14 17:54:00
1:54 PM,37.9,18.0,45,29.89,10.0,North,5.8,-,N/A,,Clear,350,2013-02-14 18:54:00
2:54 PM,37.0,18.0,46,29.90,10.0,SE,3.5,-,N/A,,Partly Cloudy,140,2013-02-14 19:54:00
3:54 PM,37.9,18.0,45,29.91,10.0,Calm,Calm,-,N/A,,Clear,0,2013-02-14 20:54:00
4:54 PM,37.9,17.1,43,29.92,10.0,Calm,Calm,-,N/A,,Clear,0,2013-02-14 21:54:00
5:54 PM,30.0,19.0,64,29.95,10.0,NNW,3.5,-,N/A,,Clear,340,2013-02-14 22:54:00
6:54 PM,27.0,19.0,72,29.98,10.0,Calm,Calm,-,N/A,,Clear,0,2013-02-14 23:54:00
7:54 PM,26.1,18.0,71,29.97,10.0,Calm,Calm,-,N/A,,Overcast,0,2013-02-15 00:54:00
8:54 PM,27.0,19.0,72,29.96,9.0,Calm,Calm,-,N/A,,Scattered Clouds,0,2013-02-15 01:54:00
9:54 PM,26.1,19.0,75,29.98,7.0,Calm,Calm,-,N/A,,Overcast,0,2013-02-15 02:54:00
10:54 PM,26.1,19.0,75,29.97,8.0,Calm,Calm,-,N/A,,Overcast,0,2013-02-15 03:54:00
11:54 PM,25.0,19.0,78,29.97,6.0,Calm,Calm,-,N/A,,Haze,0,2013-02-15 04:54:00